createdAt,value
2018-02-12T00:00:37.894Z,12.90
2018-02-12T00:01:37.903Z,13.60
2018-02-12T00:02:37.911Z,15.70
2018-02-12T00:03:37.923Z,13.10
2018-02-12T00:04:38.035Z,13.50
2018-02-12T00:05:37.943Z,14.60
2018-02-12T00:06:38.053Z,14.30
2018-02-12T00:07:37.963Z,13.80
2018-02-12T00:08:37.975Z,14.30
2018-02-12T00:09:37.985Z,15.20
2018-02-12T00:10:37.995Z,15.10
2018-02-12T00:11:38.004Z,16.20
2018-02-12T00:12:38.018Z,16.00
2018-02-12T00:13:38.026Z,16.50
2018-02-12T00:14:38.031Z,14.00
2018-02-12T00:15:38.037Z,14.30
2018-02-12T00:16:38.148Z,14.40
2018-02-12T00:17:38.058Z,14.30
2018-02-12T00:18:38.067Z,14.00
2018-02-12T00:19:38.078Z,14.50
2018-02-12T00:20:38.088Z,14.90
2018-02-12T00:21:38.098Z,16.80
2018-02-12T00:22:38.109Z,14.80
2018-02-12T00:23:38.211Z,17.90
2018-02-12T00:24:38.121Z,13.50
2018-02-12T00:25:38.139Z,17.20
2018-02-12T00:26:38.148Z,14.00
2018-02-12T00:27:38.179Z,14.90
2018-02-12T00:28:38.168Z,13.70
2018-02-12T00:29:38.179Z,14.10
2018-02-12T00:30:38.196Z,14.20
2018-02-12T00:31:38.198Z,13.90
2018-02-12T00:32:38.209Z,14.50
2018-02-12T00:33:38.219Z,14.40
2018-02-12T00:34:38.229Z,14.10
2018-02-12T00:35:38.240Z,14.40
2018-02-12T00:36:38.251Z,14.50
2018-02-12T00:37:38.364Z,14.40
2018-02-12T00:38:38.268Z,13.20
2018-02-12T00:39:38.279Z,14.30
2018-02-12T00:40:38.290Z,15.10
2018-02-12T00:41:38.300Z,13.70
2018-02-12T00:42:38.310Z,14.20
2018-02-12T00:43:38.320Z,13.10
2018-02-12T00:44:38.431Z,16.40
2018-02-12T00:45:38.341Z,14.30
2018-02-12T00:46:38.451Z,13.50
2018-02-12T00:47:38.360Z,14.50
2018-02-12T00:48:38.371Z,14.30
2018-02-12T00:49:38.380Z,15.50
2018-02-12T00:50:38.390Z,15.00
2018-02-12T00:51:38.400Z,13.90
2018-02-12T00:52:38.411Z,14.20
2018-02-12T00:53:38.422Z,14.00
2018-02-12T00:54:38.430Z,15.10
2018-02-12T00:55:38.441Z,15.00
2018-02-12T00:56:38.454Z,16.30
2018-02-12T00:57:38.463Z,15.80
2018-02-12T00:58:38.572Z,13.80
2018-02-12T00:59:38.480Z,16.50
2018-02-12T01:00:38.492Z,15.30
2018-02-12T01:01:38.511Z,16.50
2018-02-12T01:02:38.509Z,14.20
2018-02-12T01:03:38.523Z,14.90
2018-02-12T01:04:38.533Z,14.70
2018-02-12T01:05:38.579Z,14.80
2018-02-12T01:06:38.550Z,16.20
2018-02-12T01:07:38.560Z,13.80
2018-02-12T01:08:38.573Z,13.50
2018-02-12T01:09:38.582Z,14.70
2018-02-12T01:10:38.590Z,14.90
2018-02-12T01:11:38.601Z,14.70
2018-02-12T01:12:38.711Z,15.20
2018-02-12T01:13:38.621Z,16.80
2018-02-12T01:14:38.630Z,16.50
2018-02-12T01:15:38.641Z,17.10
2018-02-12T01:16:38.651Z,14.20
2018-02-12T01:17:38.662Z,14.80
2018-02-12T01:18:38.670Z,14.30
2018-02-12T01:19:38.680Z,14.40
2018-02-12T01:20:38.691Z,13.90
2018-02-12T01:21:38.702Z,15.50
2018-02-12T01:22:38.710Z,14.80
2018-02-12T01:23:38.720Z,15.90
2018-02-12T01:24:38.730Z,15.80
2018-02-12T01:25:38.740Z,18.20
2018-02-12T01:26:38.750Z,14.00
2018-02-12T01:27:38.760Z,15.80
2018-02-12T01:28:38.771Z,14.40
2018-02-12T01:29:38.782Z,14.70
2018-02-12T01:30:38.790Z,14.80
2018-02-12T01:31:38.801Z,13.20
2018-02-12T01:32:38.810Z,13.50
2018-02-12T01:33:38.821Z,13.70
2018-02-12T01:34:38.831Z,15.40
2018-02-12T01:35:38.843Z,14.30
2018-02-12T01:36:38.851Z,12.60
2018-02-12T01:37:38.862Z,13.70
2018-02-12T01:38:38.871Z,14.60
2018-02-12T01:39:38.884Z,13.90
2018-02-12T01:40:38.894Z,12.40
2018-02-12T01:41:38.904Z,12.70
2018-02-12T01:42:38.912Z,13.40
2018-02-12T01:43:38.923Z,13.90
2018-02-12T01:44:38.932Z,13.20
2018-02-12T01:45:38.944Z,13.30
2018-02-12T01:46:38.952Z,12.80
2018-02-12T01:47:38.964Z,12.70
2018-02-12T01:48:38.974Z,14.50
2018-02-12T01:49:38.986Z,13.40
2018-02-12T01:50:38.994Z,14.40
2018-02-12T01:51:39.004Z,13.10
2018-02-12T01:52:39.015Z,14.10
2018-02-12T01:53:39.025Z,13.90
2018-02-12T01:54:39.035Z,12.30
2018-02-12T01:55:39.039Z,12.20
2018-02-12T01:56:39.044Z,13.70
2018-02-12T01:57:39.053Z,15.80
2018-02-12T01:58:39.063Z,13.20
2018-02-12T01:59:39.072Z,14.50
2018-02-12T02:00:39.085Z,13.40
2018-02-12T02:01:39.102Z,12.60
2018-02-12T02:02:39.103Z,13.40
2018-02-12T02:03:39.113Z,13.90
2018-02-12T02:04:39.123Z,14.50
2018-02-12T02:05:39.134Z,16.20
2018-02-12T02:06:39.143Z,13.30
2018-02-12T02:07:39.153Z,15.40
2018-02-12T02:08:39.164Z,13.90
2018-02-12T02:09:39.173Z,14.80
2018-02-12T02:10:39.184Z,15.20
2018-02-12T02:11:39.195Z,13.70
2018-02-12T02:12:39.204Z,14.50
2018-02-12T02:13:39.214Z,14.90
2018-02-12T02:14:39.224Z,13.90
2018-02-12T02:15:39.234Z,13.40
2018-02-12T02:16:39.246Z,14.60
2018-02-12T02:17:39.256Z,15.20
2018-02-12T02:18:39.263Z,13.50
2018-02-12T02:19:39.275Z,13.70
2018-02-12T02:20:39.385Z,16.40
2018-02-12T02:21:39.295Z,12.40
2018-02-12T02:22:39.305Z,15.90
2018-02-12T02:23:39.315Z,14.60
2018-02-12T02:24:39.325Z,15.90
2018-02-12T02:25:39.335Z,16.50
2018-02-12T02:26:39.345Z,14.70
2018-02-12T02:27:39.355Z,17.50
2018-02-12T02:28:39.365Z,16.30
2018-02-12T02:29:39.379Z,14.60
2018-02-12T02:30:39.385Z,15.20
2018-02-12T02:31:39.395Z,16.40
2018-02-12T02:32:39.405Z,16.40
2018-02-12T02:33:39.416Z,14.10
2018-02-12T02:34:39.426Z,14.50
2018-02-12T02:35:39.436Z,13.00
2018-02-12T02:36:39.447Z,14.50
2018-02-12T02:37:39.456Z,15.80
2018-02-12T02:38:39.466Z,16.20
2018-02-12T02:39:39.479Z,16.10
2018-02-12T02:40:39.597Z,14.80
2018-02-12T02:41:39.509Z,13.80
2018-02-12T02:42:39.517Z,13.90
2018-02-12T02:43:39.528Z,15.60
2018-02-12T02:44:39.537Z,15.40
2018-02-12T02:45:39.550Z,15.90
2018-02-12T02:46:39.559Z,15.40
2018-02-12T02:47:39.577Z,14.80
2018-02-12T02:48:39.577Z,13.60
2018-02-12T02:49:39.588Z,14.00
2018-02-12T02:50:39.598Z,14.30
2018-02-12T02:51:39.608Z,14.60
2018-02-12T02:52:39.617Z,15.50
2018-02-12T02:53:39.627Z,14.50
2018-02-12T02:54:39.637Z,16.90
2018-02-12T02:55:39.646Z,17.40
2018-02-12T02:56:39.659Z,15.30
2018-02-12T02:57:39.665Z,14.70
2018-02-12T02:58:39.676Z,15.00
2018-02-12T02:59:39.687Z,17.20
2018-02-12T03:00:39.698Z,19.90
2018-02-12T03:01:39.707Z,16.70
2018-02-12T03:02:39.716Z,16.70
2018-02-12T03:03:39.727Z,16.90
2018-02-12T03:04:39.736Z,18.20
2018-02-12T03:05:39.747Z,16.20
2018-02-12T03:06:39.756Z,19.90
2018-02-12T03:07:39.767Z,16.30
2018-02-12T03:08:39.778Z,17.80
2018-02-12T03:09:39.788Z,16.90
2018-02-12T03:10:39.796Z,15.20
2018-02-12T03:11:39.807Z,16.70
2018-02-12T03:12:39.815Z,16.70
2018-02-12T03:13:39.927Z,15.40
2018-02-12T03:14:39.837Z,15.50
2018-02-12T03:15:39.846Z,14.60
2018-02-12T03:16:39.859Z,15.30
2018-02-12T03:17:39.868Z,16.00
2018-02-12T03:18:39.876Z,15.60
2018-02-12T03:19:39.988Z,14.90
2018-02-12T03:20:39.896Z,16.10
2018-02-12T03:21:39.907Z,17.30
2018-02-12T03:22:39.916Z,15.80
2018-02-12T03:23:39.925Z,16.10
2018-02-12T03:24:39.936Z,16.10
2018-02-12T03:25:40.245Z,15.80
2018-02-12T03:26:39.954Z,19.10
2018-02-12T03:27:39.965Z,18.10
2018-02-12T03:28:39.976Z,17.00
2018-02-12T03:29:39.985Z,16.40
2018-02-12T03:30:39.995Z,19.50
2018-02-12T03:31:40.006Z,18.10
2018-02-12T03:32:40.014Z,15.30
2018-02-12T03:33:40.024Z,17.30
2018-02-12T03:34:40.034Z,17.90
2018-02-12T03:35:40.043Z,19.10
2018-02-12T03:36:40.054Z,17.90
2018-02-12T03:37:40.115Z,16.20
2018-02-12T03:38:40.074Z,17.10
2018-02-12T03:39:40.085Z,15.10
2018-02-12T03:40:40.094Z,17.20
2018-02-12T03:41:40.105Z,16.50
2018-02-12T03:42:40.113Z,16.40
2018-02-12T03:43:40.225Z,17.90
2018-02-12T03:44:40.133Z,15.70
2018-02-12T03:45:40.144Z,15.20
2018-02-12T03:46:40.155Z,16.10
2018-02-12T03:47:40.164Z,16.70
2018-02-12T03:48:40.174Z,17.60
2018-02-12T03:49:40.183Z,15.10
2018-02-12T03:50:40.192Z,16.10
2018-02-12T03:51:40.203Z,15.50
2018-02-12T03:52:40.213Z,15.20
2018-02-12T03:53:40.223Z,13.80
2018-02-12T03:54:40.235Z,15.70
2018-02-12T03:55:40.232Z,13.20
2018-02-12T03:56:40.240Z,14.00
2018-02-12T03:57:40.252Z,14.40
2018-02-12T03:58:40.461Z,13.10
2018-02-12T03:59:40.274Z,14.00
2018-02-12T04:00:40.282Z,13.00
2018-02-12T04:01:40.397Z,11.60
2018-02-12T04:02:40.299Z,12.50
2018-02-12T04:03:40.310Z,11.60
2018-02-12T04:04:40.320Z,12.30
2018-02-12T04:05:40.331Z,14.40
2018-02-12T04:06:40.339Z,13.20
2018-02-12T04:07:40.350Z,13.10
2018-02-12T04:08:40.384Z,13.00
2018-02-12T04:09:40.382Z,13.20
2018-02-12T04:10:40.380Z,11.90
2018-02-12T04:11:40.389Z,12.40
2018-02-12T04:12:40.400Z,12.80
2018-02-12T04:13:40.413Z,14.60
2018-02-12T04:14:40.419Z,13.70
2018-02-12T04:15:40.429Z,12.30
2018-02-12T04:16:40.439Z,14.60
2018-02-12T04:17:40.451Z,11.60
2018-02-12T04:18:40.459Z,12.10
2018-02-12T04:19:40.469Z,12.60
2018-02-12T04:20:40.479Z,12.30
2018-02-12T04:21:40.489Z,11.60
2018-02-12T04:22:40.500Z,12.70
2018-02-12T04:23:40.510Z,11.90
2018-02-12T04:24:40.519Z,13.50
2018-02-12T04:25:40.530Z,10.90
2018-02-12T04:26:40.539Z,11.60
2018-02-12T04:27:40.548Z,11.90
2018-02-12T04:28:40.561Z,11.90
2018-02-12T04:29:40.569Z,13.10
2018-02-12T04:30:40.579Z,11.90
2018-02-12T04:31:40.588Z,13.20
2018-02-12T04:32:40.598Z,12.00
2018-02-12T04:33:40.610Z,12.40
2018-02-12T04:34:40.718Z,13.10
2018-02-12T04:35:40.629Z,12.30
2018-02-12T04:36:40.637Z,11.70
2018-02-12T04:37:40.647Z,11.70
2018-02-12T04:38:40.660Z,12.50
2018-02-12T04:39:40.671Z,12.90
2018-02-12T04:40:40.679Z,10.50
2018-02-12T04:41:40.687Z,11.80
2018-02-12T04:42:40.698Z,11.80
2018-02-12T04:43:40.709Z,11.40
2018-02-12T04:44:40.719Z,11.10
2018-02-12T04:45:40.729Z,11.00
2018-02-12T04:46:40.739Z,12.00
2018-02-12T04:47:40.748Z,12.20
2018-02-12T04:48:40.758Z,10.50
2018-02-12T04:49:40.770Z,11.40
2018-02-12T04:50:40.779Z,12.00
2018-02-12T04:51:40.787Z,10.50
2018-02-12T04:52:40.799Z,9.00
2018-02-12T04:53:40.812Z,9.90
2018-02-12T04:54:40.817Z,9.90
2018-02-12T04:55:40.828Z,9.90
2018-02-12T04:56:40.838Z,9.50
2018-02-12T04:57:40.848Z,10.10
2018-02-12T04:58:40.856Z,9.00
2018-02-12T04:59:40.867Z,8.20
2018-02-12T05:00:40.876Z,8.20
2018-02-12T05:01:40.886Z,7.70
2018-02-12T05:02:40.897Z,8.10
2018-02-12T05:03:40.907Z,8.50
2018-02-12T05:04:40.916Z,8.10
2018-02-12T05:05:40.924Z,8.90
2018-02-12T05:06:40.935Z,8.90
2018-02-12T05:07:40.945Z,7.80
2018-02-12T05:08:40.954Z,8.70
2018-02-12T05:09:40.963Z,8.90
2018-02-12T05:10:40.973Z,8.00
2018-02-12T05:11:40.982Z,7.90
2018-02-12T05:12:40.993Z,8.30
2018-02-12T05:13:41.003Z,8.20
2018-02-12T05:14:41.016Z,7.80
2018-02-12T05:15:41.120Z,8.70
2018-02-12T05:16:41.032Z,7.50
2018-02-12T05:17:41.041Z,8.40
2018-02-12T05:18:41.050Z,7.60
2018-02-12T05:19:41.061Z,9.30
2018-02-12T05:20:41.069Z,8.40
2018-02-12T05:21:41.080Z,7.60
2018-02-12T05:22:41.091Z,7.60
2018-02-12T05:23:41.198Z,9.80
2018-02-12T05:24:41.110Z,8.20
2018-02-12T05:25:41.120Z,9.70
2018-02-12T05:26:41.129Z,8.80
2018-02-12T05:27:41.138Z,10.70
2018-02-12T05:28:41.149Z,8.00
2018-02-12T05:29:41.157Z,8.20
2018-02-12T05:30:41.167Z,9.80
2018-02-12T05:31:41.177Z,9.70
2018-02-12T05:32:41.191Z,10.90
2018-02-12T05:33:41.195Z,9.70
2018-02-12T05:34:41.210Z,9.10
2018-02-12T05:35:41.216Z,10.80
2018-02-12T05:36:41.226Z,9.40
2018-02-12T05:37:41.235Z,10.10
2018-02-12T05:38:41.245Z,10.50
2018-02-12T05:39:41.254Z,10.50
2018-02-12T05:40:41.266Z,13.00
2018-02-12T05:41:41.286Z,10.90
2018-02-12T05:42:41.297Z,11.10
2018-02-12T05:43:41.306Z,13.40
2018-02-12T05:44:41.318Z,12.90
2018-02-12T05:45:41.325Z,11.50
2018-02-12T05:46:41.334Z,16.00
2018-02-12T05:47:41.343Z,13.00
2018-02-12T05:48:41.352Z,12.50
2018-02-12T05:49:41.363Z,12.90
2018-02-12T05:50:41.371Z,11.30
2018-02-12T05:51:41.381Z,13.10
2018-02-12T05:52:41.394Z,11.40
2018-02-12T05:53:41.406Z,14.40
2018-02-12T05:54:41.410Z,15.40
2018-02-12T05:55:41.519Z,14.70
2018-02-12T05:56:41.430Z,15.30
2018-02-12T05:57:41.441Z,14.40
2018-02-12T05:58:41.449Z,15.20
2018-02-12T05:59:41.461Z,15.70
2018-02-12T06:00:41.468Z,15.10
2018-02-12T06:01:41.477Z,13.90
2018-02-12T06:02:41.487Z,17.00
2018-02-12T06:03:41.496Z,16.30
2018-02-12T06:04:41.607Z,19.40
2018-02-12T06:05:41.516Z,16.10
2018-02-12T06:06:41.526Z,18.40
2018-02-12T06:07:41.537Z,16.70
2018-02-12T06:08:41.546Z,16.10
2018-02-12T06:09:41.555Z,19.10
2018-02-12T06:10:41.565Z,15.50
2018-02-12T06:11:41.574Z,17.40
2018-02-12T06:12:41.585Z,15.80
2018-02-12T06:13:41.593Z,17.90
2018-02-12T06:14:41.603Z,15.80
2018-02-12T06:15:41.614Z,15.20
2018-02-12T06:16:41.623Z,18.90
2018-02-12T06:17:41.634Z,18.20
2018-02-12T06:18:41.642Z,14.70
2018-02-12T06:19:41.651Z,19.00
2018-02-12T06:20:41.661Z,14.70
2018-02-12T06:21:41.669Z,19.40
2018-02-12T06:22:41.679Z,18.10
2018-02-12T06:23:41.689Z,17.40
2018-02-12T06:24:41.808Z,17.60
2018-02-12T06:25:41.710Z,12.60
2018-02-12T06:26:41.717Z,16.20
2018-02-12T06:27:41.730Z,16.90
2018-02-12T06:28:41.739Z,18.00
2018-02-12T06:29:41.749Z,16.90
2018-02-12T06:30:41.758Z,17.00
2018-02-12T06:31:41.769Z,17.90
2018-02-12T06:32:41.778Z,15.80
2018-02-12T06:33:41.788Z,17.10
2018-02-12T06:34:41.897Z,16.30
2018-02-12T06:35:41.806Z,14.80
2018-02-12T06:36:41.816Z,15.90
2018-02-12T06:37:41.826Z,16.90
2018-02-12T06:38:41.835Z,17.10
2018-02-12T06:39:41.845Z,18.10
2018-02-12T06:40:41.856Z,17.70
2018-02-12T06:41:41.871Z,19.70
2018-02-12T06:42:41.874Z,15.60
2018-02-12T06:43:41.882Z,14.30
2018-02-12T06:44:41.894Z,15.80
2018-02-12T06:45:41.905Z,18.70
2018-02-12T06:46:41.956Z,17.40
2018-02-12T06:47:41.921Z,15.40
2018-02-12T06:48:41.931Z,13.80
2018-02-12T06:49:41.940Z,12.10
2018-02-12T06:50:41.949Z,16.30
2018-02-12T06:51:41.958Z,16.10
2018-02-12T06:52:41.969Z,15.50
2018-02-12T06:53:41.980Z,16.30
2018-02-12T06:54:42.119Z,15.30
2018-02-12T06:55:41.998Z,12.40
2018-02-12T06:56:42.007Z,15.90
2018-02-12T06:57:42.017Z,12.90
2018-02-12T06:58:42.026Z,14.40
2018-02-12T06:59:42.035Z,18.00
2018-02-12T07:00:42.146Z,12.10
2018-02-12T07:01:42.055Z,12.40
2018-02-12T07:02:42.064Z,13.00
2018-02-12T07:03:42.073Z,14.90
2018-02-12T07:04:42.083Z,15.80
2018-02-12T07:05:42.094Z,12.90
2018-02-12T07:06:42.104Z,13.30
2018-02-12T07:07:42.111Z,11.10
2018-02-12T07:08:42.123Z,13.50
2018-02-12T07:09:42.131Z,17.40
2018-02-12T07:10:42.141Z,16.50
2018-02-12T07:11:42.149Z,14.50
2018-02-12T07:12:42.163Z,12.30
2018-02-12T07:13:42.170Z,13.60
2018-02-12T07:14:42.177Z,10.60
2018-02-12T07:15:42.188Z,10.90
2018-02-12T07:16:42.196Z,13.70
2018-02-12T07:17:42.207Z,9.70
2018-02-12T07:18:42.214Z,13.90
2018-02-12T07:19:42.225Z,9.40
2018-02-12T07:20:42.236Z,13.00
2018-02-12T07:21:42.246Z,10.70
2018-02-12T07:22:42.254Z,11.90
2018-02-12T07:23:42.264Z,12.20
2018-02-12T07:24:42.274Z,13.40
2018-02-12T07:25:42.284Z,14.00
2018-02-12T07:26:42.299Z,13.10
2018-02-12T07:27:42.303Z,12.20
2018-02-12T07:28:42.312Z,14.40
2018-02-12T07:29:42.324Z,13.80
2018-02-12T07:30:42.330Z,9.90
2018-02-12T07:31:42.340Z,10.80
2018-02-12T07:32:42.350Z,12.10
2018-02-12T07:33:42.362Z,15.30
2018-02-12T07:34:42.370Z,11.60
2018-02-12T07:35:42.378Z,13.30
2018-02-12T07:36:42.390Z,11.70
2018-02-12T07:37:42.499Z,11.30
2018-02-12T07:38:42.508Z,9.70
2018-02-12T07:39:42.509Z,8.70
2018-02-12T07:40:42.984Z,12.50
2018-02-12T07:41:42.565Z,10.70
2018-02-12T07:42:42.432Z,9.90
2018-02-12T07:43:42.449Z,8.10
2018-02-12T07:44:42.459Z,8.60
2018-02-12T07:45:42.457Z,9.40
2018-02-12T07:46:42.465Z,9.80
2018-02-12T07:47:42.477Z,11.60
2018-02-12T07:48:42.486Z,7.60
2018-02-12T07:49:42.495Z,7.90
2018-02-12T07:50:42.504Z,10.10
2018-02-12T07:51:42.515Z,10.60
2018-02-12T07:52:42.525Z,7.90
2018-02-12T07:53:42.535Z,7.50
2018-02-12T07:54:42.544Z,7.40
2018-02-12T07:55:42.566Z,9.40
2018-02-12T07:56:42.576Z,9.30
2018-02-12T07:57:42.576Z,8.90
2018-02-12T07:58:42.597Z,7.40
2018-02-12T07:59:42.594Z,7.00
2018-02-12T08:00:42.615Z,9.70
2018-02-12T08:01:42.616Z,8.30
2018-02-12T08:02:42.635Z,8.40
2018-02-12T08:03:42.733Z,8.90
2018-02-12T08:04:42.644Z,10.30
2018-02-12T08:05:42.654Z,8.90
2018-02-12T08:06:42.664Z,10.20
2018-02-12T08:07:42.775Z,8.40
2018-02-12T08:08:42.684Z,7.70
2018-02-12T08:09:42.694Z,8.50
2018-02-12T08:10:42.704Z,10.30
2018-02-12T08:11:42.714Z,10.60
2018-02-12T08:12:42.740Z,13.20
2018-02-12T08:13:42.735Z,10.20
2018-02-12T08:14:42.745Z,10.80
2018-02-12T08:15:42.755Z,12.30
2018-02-12T08:16:42.864Z,10.10
2018-02-12T08:17:42.774Z,9.80
2018-02-12T08:18:42.783Z,11.20
2018-02-12T08:19:42.794Z,9.80
2018-02-12T08:20:42.857Z,10.70
2018-02-12T08:21:42.831Z,8.90
2018-02-12T08:22:42.837Z,9.00
2018-02-12T08:23:42.840Z,11.20
2018-02-12T08:24:42.846Z,11.00
2018-02-12T08:25:42.856Z,8.10
2018-02-12T08:26:42.864Z,8.40
2018-02-12T08:27:42.876Z,10.20
2018-02-12T08:28:42.896Z,10.60
2018-02-12T08:29:42.909Z,9.60
2018-02-12T08:30:42.917Z,12.30
2018-02-12T08:31:42.917Z,8.50
2018-02-12T08:32:42.940Z,11.30
2018-02-12T08:33:42.949Z,11.50
2018-02-12T08:34:42.960Z,10.50
2018-02-12T08:35:42.957Z,8.70
2018-02-12T08:36:42.968Z,10.00
2018-02-12T08:37:42.979Z,11.00
2018-02-12T08:38:42.999Z,8.80
2018-02-12T08:39:43.000Z,12.10
2018-02-12T08:40:43.010Z,9.50
2018-02-12T08:41:43.020Z,6.70
2018-02-12T08:42:43.030Z,6.50
2018-02-12T08:43:43.042Z,9.90
2018-02-12T08:44:43.051Z,8.60
2018-02-12T08:45:43.061Z,9.10
2018-02-12T08:46:43.172Z,9.00
2018-02-12T08:47:43.081Z,10.00
2018-02-12T08:48:43.092Z,7.80
2018-02-12T08:49:43.103Z,6.50
2018-02-12T08:50:43.113Z,8.10
2018-02-12T08:51:43.124Z,6.90
2018-02-12T08:53:43.146Z,9.80
2018-02-12T08:54:43.156Z,6.70
2018-02-12T08:55:43.166Z,6.20
2018-02-12T08:56:43.177Z,7.90
2018-02-12T08:57:43.221Z,7.00
2018-02-12T08:58:43.211Z,8.50
2018-02-12T08:59:43.220Z,6.30
2018-02-12T09:00:43.218Z,7.20
2018-02-12T09:01:43.864Z,8.00
2018-02-12T09:02:43.239Z,9.10
2018-02-12T09:03:43.261Z,9.10
2018-02-12T09:04:43.261Z,8.70
2018-02-12T09:05:43.282Z,9.20
2018-02-12T09:06:43.280Z,7.40
2018-02-12T09:07:43.290Z,6.90
2018-02-12T09:08:43.301Z,8.40
2018-02-12T09:09:43.314Z,8.10
2018-02-12T09:10:43.322Z,6.40
2018-02-12T09:11:43.332Z,9.50
2018-02-12T09:12:43.442Z,5.40
2018-02-12T09:13:43.351Z,9.60
2018-02-12T09:14:43.362Z,7.50
2018-02-12T09:15:43.473Z,7.00
2018-02-12T09:16:43.483Z,8.70
2018-02-12T09:17:43.394Z,8.00
2018-02-12T09:18:43.406Z,9.60
2018-02-12T09:19:43.417Z,7.80
2018-02-12T09:20:43.426Z,8.20
2018-02-12T09:21:43.436Z,6.70
2018-02-12T09:22:43.446Z,8.20
2018-02-12T09:23:43.457Z,9.00
2018-02-12T09:24:43.469Z,7.70
2018-02-12T09:25:43.479Z,6.70
2018-02-12T09:26:43.491Z,9.30
2018-02-12T09:27:43.500Z,7.30
2018-02-12T09:28:43.882Z,7.50
2018-02-12T09:29:43.521Z,8.10
2018-02-12T09:30:43.543Z,10.80
2018-02-12T09:31:43.544Z,8.50
2018-02-12T09:32:43.558Z,6.50
2018-02-12T09:33:43.565Z,8.90
2018-02-12T09:34:43.574Z,6.00
2018-02-12T09:35:43.784Z,8.10
2018-02-12T09:36:43.597Z,6.90
2018-02-12T09:37:43.606Z,8.70
2018-02-12T09:38:43.616Z,6.80
2018-02-12T09:39:43.627Z,8.10
2018-02-12T09:40:43.642Z,10.90
2018-02-12T09:41:43.651Z,6.50
2018-02-12T09:42:43.659Z,9.20
2018-02-12T09:43:43.671Z,34.40
2018-02-12T09:44:43.680Z,9.40
2018-02-12T09:45:43.692Z,10.40
2018-02-12T09:46:43.702Z,10.10
2018-02-12T09:47:43.724Z,8.30
2018-02-12T09:48:43.823Z,8.40
2018-02-12T09:49:43.734Z,8.80
2018-02-12T09:50:43.744Z,8.30
2018-02-12T09:51:43.754Z,13.20
2018-02-12T09:52:43.764Z,11.10
2018-02-12T09:53:43.775Z,9.00
2018-02-12T09:54:43.785Z,10.20
2018-02-12T09:55:43.799Z,8.20
2018-02-12T09:56:43.807Z,10.40
2018-02-12T09:57:43.819Z,10.90
2018-02-12T09:58:43.828Z,11.90
2018-02-12T09:59:43.849Z,11.70
2018-02-12T10:00:43.849Z,11.70
2018-02-12T10:01:43.862Z,11.30
2018-02-12T10:02:43.870Z,10.50
2018-02-12T10:03:44.092Z,12.90
2018-02-12T10:04:44.021Z,10.30
2018-02-12T10:05:44.606Z,12.50
2018-02-12T10:06:44.252Z,9.20
2018-02-12T10:07:43.927Z,12.50
2018-02-12T10:08:43.957Z,12.10
2018-02-12T10:09:43.947Z,12.30
2018-02-12T10:10:44.268Z,14.50
2018-02-12T10:11:43.960Z,10.70
2018-02-12T10:12:43.983Z,10.60
2018-02-12T10:13:43.983Z,12.80
2018-02-12T10:14:44.079Z,13.40
2018-02-12T10:15:44.677Z,16.00
2018-02-12T10:16:44.203Z,13.00
2018-02-12T10:17:44.155Z,15.80
2018-02-12T10:18:44.196Z,13.00
2018-02-12T10:20:44.192Z,15.40
2018-02-12T10:21:44.204Z,15.30
2018-02-12T10:22:44.233Z,12.40
2018-02-12T10:23:44.262Z,13.60
2018-02-12T10:24:44.249Z,14.50
2018-02-12T10:25:44.204Z,14.30
2018-02-12T10:26:44.556Z,13.40
2018-02-12T10:27:44.604Z,13.40
2018-02-12T10:28:44.273Z,11.30
2018-02-12T10:29:44.337Z,15.20
2018-02-12T10:30:44.162Z,14.20
2018-02-12T10:31:44.173Z,11.50
2018-02-12T10:32:44.185Z,11.80
2018-02-12T10:33:44.196Z,11.10
2018-02-12T10:34:44.209Z,11.40
2018-02-12T10:35:44.216Z,15.20
2018-02-12T10:36:44.229Z,9.70
2018-02-12T10:37:44.238Z,12.70
2018-02-12T10:38:44.432Z,10.30
2018-02-12T10:39:44.260Z,9.40
2018-02-12T10:40:44.273Z,10.30
2018-02-12T10:41:44.290Z,12.50
2018-02-12T10:42:44.292Z,10.50
2018-02-12T10:43:44.305Z,13.10
2018-02-12T10:44:44.313Z,13.30
2018-02-12T10:45:44.325Z,13.10
2018-02-12T10:46:44.336Z,10.70
2018-02-12T10:47:44.346Z,15.80
2018-02-12T10:48:44.362Z,23.50
2018-02-12T10:49:44.399Z,11.70
2018-02-12T10:50:44.379Z,15.20
2018-02-12T10:51:44.390Z,11.60
2018-02-12T10:52:44.403Z,12.80
2018-02-12T10:53:44.414Z,10.20
2018-02-12T10:54:44.423Z,10.00
2018-02-12T10:55:44.437Z,13.50
2018-02-12T10:56:44.464Z,14.40
2018-02-12T10:57:44.459Z,10.70
2018-02-12T10:58:44.468Z,11.70
2018-02-12T10:59:44.479Z,15.50
2018-02-12T11:00:44.491Z,13.40
2018-02-12T11:01:44.501Z,12.60
2018-02-12T11:02:44.543Z,10.90
2018-02-12T11:03:44.523Z,11.80
2018-02-12T11:04:44.534Z,11.80
2018-02-12T11:05:44.557Z,11.30
2018-02-12T11:06:44.562Z,12.40
2018-02-12T11:07:44.570Z,10.50
2018-02-12T11:08:44.580Z,10.50
2018-02-12T11:09:44.600Z,12.30
2018-02-12T11:10:44.600Z,11.10
2018-02-12T11:11:44.614Z,10.60
2018-02-12T11:12:44.623Z,9.60
2018-02-12T11:13:44.635Z,12.10
2018-02-12T11:14:44.647Z,8.20
2018-02-12T11:15:44.657Z,12.90
2018-02-12T11:16:44.668Z,10.20
2018-02-12T11:17:44.677Z,12.60
2018-02-12T11:18:44.702Z,9.80
2018-02-12T11:19:44.700Z,9.70
2018-02-12T11:20:44.711Z,12.00
2018-02-12T11:21:44.723Z,11.20
2018-02-12T11:22:44.737Z,13.00
2018-02-12T11:23:44.744Z,10.70
2018-02-12T11:24:44.981Z,10.40
2018-02-12T11:25:44.874Z,12.10
2018-02-12T11:26:44.790Z,10.40
2018-02-12T11:27:44.789Z,11.20
2018-02-12T11:28:44.812Z,14.00
2018-02-12T11:29:44.812Z,10.40
2018-02-12T11:30:44.823Z,14.40
2018-02-12T11:31:44.834Z,10.80
2018-02-12T11:32:44.845Z,10.80
2018-02-12T11:33:44.857Z,12.70
2018-02-12T11:34:44.875Z,10.00
2018-02-12T11:35:44.879Z,7.80
2018-02-12T11:36:44.890Z,11.60
2018-02-12T11:37:44.900Z,9.70
2018-02-12T11:38:44.911Z,10.20
2018-02-12T11:39:44.924Z,12.70
2018-02-12T11:40:44.935Z,11.40
2018-02-12T11:41:44.948Z,10.20
2018-02-12T11:42:44.957Z,9.80
2018-02-12T11:43:44.969Z,13.70
2018-02-12T11:44:44.982Z,13.40
2018-02-12T11:45:44.991Z,8.90
2018-02-12T11:46:45.001Z,9.70
2018-02-12T11:47:45.013Z,9.90
2018-02-12T11:48:45.026Z,11.90
2018-02-12T11:49:45.041Z,13.90
2018-02-12T11:50:45.048Z,10.80
2018-02-12T11:51:45.061Z,11.20
2018-02-12T11:52:45.074Z,9.30
2018-02-12T11:54:45.752Z,9.90
2018-02-12T11:55:45.108Z,8.70
2018-02-12T11:57:45.129Z,12.20
2018-02-12T11:58:45.136Z,9.30
2018-02-12T11:59:45.147Z,11.20
2018-02-12T12:00:45.159Z,7.30
2018-02-12T12:01:45.170Z,13.10
2018-02-12T12:02:45.181Z,9.00
2018-02-12T12:03:45.193Z,7.60
2018-02-12T12:04:45.205Z,8.20
2018-02-12T12:05:45.216Z,9.70
2018-02-12T12:06:45.227Z,7.50
2018-02-12T12:07:45.240Z,10.30
2018-02-12T12:08:45.353Z,9.20
2018-02-12T12:09:45.263Z,7.60
2018-02-12T12:10:45.275Z,13.30
2018-02-12T12:11:45.285Z,7.70
2018-02-12T12:12:45.297Z,8.20
2018-02-12T12:13:45.308Z,7.00
2018-02-12T12:14:45.319Z,12.80
2018-02-12T12:15:45.331Z,8.20
2018-02-12T12:16:45.343Z,10.00
2018-02-12T12:17:45.354Z,14.60
2018-02-12T12:18:45.364Z,6.90
2018-02-12T12:19:45.376Z,12.60
2018-02-12T12:20:45.388Z,9.30
2018-02-12T12:21:45.405Z,9.70
2018-02-12T12:22:45.411Z,11.50
2018-02-12T12:23:45.423Z,10.10
2018-02-12T12:24:45.434Z,11.30
2018-02-12T12:25:45.445Z,10.30
2018-02-12T12:26:45.456Z,12.70
2018-02-12T12:27:45.479Z,9.20
2018-02-12T12:28:45.493Z,9.70
2018-02-12T12:29:45.491Z,9.40
2018-02-12T12:30:45.604Z,10.90
2018-02-12T12:31:45.522Z,8.50
2018-02-12T12:32:45.528Z,8.90
2018-02-12T12:33:45.538Z,10.50
2018-02-12T12:34:45.565Z,11.60
2018-02-12T12:35:45.562Z,13.50
2018-02-12T12:36:45.572Z,12.30
2018-02-12T12:37:45.583Z,8.40
2018-02-12T12:38:45.595Z,8.80
2018-02-12T12:39:45.612Z,12.30
2018-02-12T12:40:45.620Z,10.20
2018-02-12T12:41:45.629Z,10.10
2018-02-12T12:42:45.642Z,10.80
2018-02-12T12:43:45.653Z,10.40
2018-02-12T12:44:45.677Z,9.00
2018-02-12T12:45:45.675Z,7.40
2018-02-12T12:46:45.688Z,8.00
2018-02-12T12:47:45.726Z,10.20
2018-02-12T12:48:45.709Z,12.20
2018-02-12T12:49:45.721Z,11.30
2018-02-12T12:50:45.733Z,12.80
2018-02-12T12:51:45.743Z,10.70
2018-02-12T12:52:45.756Z,9.40
2018-02-12T12:53:45.768Z,12.70
2018-02-12T12:54:45.777Z,9.70
2018-02-12T12:55:45.790Z,13.30
2018-02-12T12:56:45.800Z,11.30
2018-02-12T12:57:45.815Z,9.40
2018-02-12T12:58:45.824Z,10.50
2018-02-12T12:59:45.836Z,11.30
2018-02-12T13:00:45.849Z,11.60
2018-02-12T13:01:45.860Z,10.10
2018-02-12T13:02:45.872Z,10.70